Weather at Stefanovikion Air Base [CLOSED]

Public forecast

Using degrees Celsius for public forecast. Weather courtesy of forecast.io.

Closest aviation weather report (METAR) to Stefanovikion Air Base

Closest report is Nea Anchialos National Airport, 15.7 nm (29.0 km) S. Retrieved 2021/04/12 21:50 UTC (1 hour ago):

LGBL 122150Z 27004KT CAVOK 09/07 Q1019 RMK SCT190 BLU

Closest aviation forecast (TAF) to Stefanovikion Air Base

Forecast is more than 12 hours old.

Closest forecast is Skiathos Island National Airport, 38.7 nm (71.7 km) ESE. Retrieved 2012/09/27 00:18 UTC (9 years ago):

TAF LGSK 272300Z 2800/2909 01010KT 9999 FEW020